createdAt,value
2017-09-18T00:01:05.544Z,9.23
2017-09-18T00:03:33.118Z,6.68
2017-09-18T00:06:00.698Z,11.02
2017-09-18T00:08:28.294Z,7.97
2017-09-18T00:10:56.071Z,6.45
2017-09-18T00:13:23.658Z,7.43
2017-09-18T00:15:52.036Z,7.20
2017-09-18T00:18:19.598Z,4.70
2017-09-18T00:20:47.953Z,9.52
2017-09-18T00:23:15.511Z,7.60
2017-09-18T00:25:43.129Z,8.95
2017-09-18T00:28:10.801Z,11.07
2017-09-18T00:30:38.350Z,8.15
2017-09-18T00:33:05.941Z,6.90
2017-09-18T00:35:33.538Z,10.52
2017-09-18T00:38:01.114Z,9.63
2017-09-18T00:40:29.454Z,7.82
2017-09-18T00:42:57.020Z,7.05
2017-09-18T00:45:24.600Z,6.18
2017-09-18T00:47:52.162Z,5.68
2017-09-18T00:50:19.728Z,10.85
2017-09-18T00:52:47.265Z,6.30
2017-09-18T00:55:14.842Z,5.78
2017-09-18T00:57:42.424Z,6.00
2017-09-18T01:00:09.998Z,11.45
2017-09-18T01:02:37.559Z,5.30
2017-09-18T01:05:05.226Z,7.22
2017-09-18T01:07:32.805Z,6.05
2017-09-18T01:10:00.381Z,5.55
2017-09-18T01:12:30.998Z,5.50
2017-09-18T01:14:58.564Z,5.75
2017-09-18T01:17:26.168Z,6.00
2017-09-18T01:19:53.718Z,5.82
2017-09-18T01:22:21.312Z,8.60
2017-09-18T01:24:49.727Z,5.55
2017-09-18T01:27:17.298Z,6.72
2017-09-18T01:29:44.867Z,8.48
2017-09-18T01:32:12.531Z,5.43
2017-09-18T01:34:40.101Z,7.00
2017-09-18T01:37:19.510Z,5.40
2017-09-18T01:39:47.185Z,5.93
2017-09-18T01:42:14.758Z,4.37
2017-09-18T01:44:42.323Z,8.57
2017-09-18T01:47:09.906Z,4.30
2017-09-18T01:49:37.483Z,8.50
2017-09-18T01:52:05.802Z,15.32
2017-09-18T01:54:33.371Z,8.05
2017-09-18T01:57:01.093Z,5.32
2017-09-18T01:59:29.431Z,5.00
2017-09-18T02:01:56.999Z,4.97
2017-09-18T02:04:24.548Z,8.10
2017-09-18T02:06:53.111Z,6.82
2017-09-18T02:09:20.681Z,10.30
2017-09-18T02:11:48.230Z,5.25
2017-09-18T02:14:15.806Z,8.43
2017-09-18T02:16:43.372Z,6.70
2017-09-18T02:19:10.956Z,4.10
2017-09-18T02:21:38.623Z,3.80
2017-09-18T02:24:06.189Z,4.32
2017-09-18T02:26:33.780Z,7.15
2017-09-18T02:29:02.130Z,5.25
2017-09-18T02:31:29.716Z,4.53
2017-09-18T02:33:58.026Z,5.30
2017-09-18T02:36:33.528Z,5.93
2017-09-18T02:39:01.854Z,10.30
2017-09-18T02:41:29.440Z,8.00
2017-09-18T02:43:56.998Z,4.87
2017-09-18T02:46:24.571Z,4.62
2017-09-18T02:48:52.135Z,4.35
2017-09-18T02:51:19.794Z,15.80
2017-09-18T02:53:47.374Z,4.53
2017-09-18T02:56:15.712Z,5.20
2017-09-18T02:58:43.295Z,5.10
2017-09-18T03:01:10.868Z,4.20
2017-09-18T03:03:39.215Z,3.53
2017-09-18T03:06:44.748Z,3.25
2017-09-18T03:09:12.330Z,6.30
2017-09-18T03:11:39.887Z,5.80
2017-09-18T03:14:07.495Z,5.05
2017-09-18T03:16:35.874Z,4.32
2017-09-18T03:19:04.390Z,5.70
2017-09-18T03:21:31.963Z,4.53
2017-09-18T03:23:59.528Z,4.45
2017-09-18T03:26:27.289Z,5.43
2017-09-18T03:28:54.839Z,7.22
2017-09-18T03:31:22.422Z,4.18
2017-09-18T03:33:49.995Z,4.30
2017-09-18T03:36:17.596Z,4.95
2017-09-18T03:38:45.924Z,4.15
2017-09-18T03:41:13.535Z,4.05
2017-09-18T03:43:41.853Z,4.35
2017-09-18T03:46:09.414Z,6.65
2017-09-18T03:48:37.012Z,5.25
2017-09-18T03:51:04.558Z,3.80
2017-09-18T03:53:32.110Z,4.97
2017-09-18T03:55:59.839Z,4.77
2017-09-18T03:58:27.455Z,5.03
2017-09-18T04:00:55.033Z,6.18
2017-09-18T04:03:22.597Z,5.62
2017-09-18T04:05:50.203Z,4.80
2017-09-18T04:08:18.568Z,5.03
2017-09-18T04:10:46.142Z,7.57
2017-09-18T04:13:14.516Z,4.22
2017-09-18T04:15:42.069Z,4.37
2017-09-18T04:18:10.419Z,4.43
2017-09-18T04:20:37.971Z,4.80
2017-09-18T04:23:05.518Z,5.07
2017-09-18T04:25:33.102Z,8.38
2017-09-18T04:28:00.670Z,8.55
2017-09-18T04:30:28.265Z,4.78
2017-09-18T04:32:56.713Z,5.50
2017-09-18T04:35:24.284Z,5.35
2017-09-18T04:37:51.860Z,7.20
2017-09-18T04:40:19.418Z,4.85
2017-09-18T04:42:47.850Z,6.78
2017-09-18T04:45:15.422Z,8.02
2017-09-18T04:47:43.003Z,6.35
2017-09-18T04:50:10.579Z,6.45
2017-09-18T04:52:38.166Z,4.50
2017-09-18T04:55:05.733Z,4.37
2017-09-18T04:57:34.050Z,5.40
2017-09-18T05:00:01.646Z,6.22
2017-09-18T05:02:29.238Z,6.12
2017-09-18T05:04:57.616Z,5.28
2017-09-18T05:07:25.972Z,9.20
2017-09-18T05:09:53.542Z,6.10
2017-09-18T05:12:21.269Z,6.93
2017-09-18T05:14:48.852Z,5.05
2017-09-18T05:17:16.443Z,5.78
2017-09-18T05:19:44.785Z,5.78
2017-09-18T05:22:12.379Z,4.18
2017-09-18T05:24:39.965Z,6.40
2017-09-18T05:27:07.527Z,10.30
2017-09-18T05:29:35.112Z,7.65
2017-09-18T05:32:02.691Z,4.80
2017-09-18T05:34:30.286Z,4.93
2017-09-18T05:36:58.640Z,5.95
2017-09-18T05:39:26.211Z,11.32
2017-09-18T05:41:53.787Z,5.25
2017-09-18T05:44:22.111Z,4.72
2017-09-18T05:46:49.706Z,5.70
2017-09-18T05:49:17.271Z,6.78
2017-09-18T05:51:44.846Z,7.60
2017-09-18T05:54:12.433Z,8.43
2017-09-18T05:56:39.996Z,6.07
2017-09-18T05:59:07.556Z,5.78
2017-09-18T06:01:35.473Z,9.20
2017-09-18T06:04:03.034Z,6.07
2017-09-18T06:06:30.640Z,7.80
2017-09-18T06:08:58.994Z,7.97
2017-09-18T06:11:26.567Z,6.47
2017-09-18T06:13:54.166Z,6.17
2017-09-18T06:16:21.934Z,5.20
2017-09-18T06:18:49.503Z,5.10
2017-09-18T06:21:17.071Z,13.43
2017-09-18T06:23:44.658Z,8.20
2017-09-18T06:26:12.218Z,7.77
2017-09-18T06:28:39.777Z,6.47
2017-09-18T06:31:07.373Z,7.43
2017-09-18T06:33:34.959Z,6.10
2017-09-18T06:36:03.340Z,5.37
2017-09-18T06:38:31.675Z,14.07
2017-09-18T06:40:59.251Z,10.20
2017-09-18T06:43:27.778Z,6.13
2017-09-18T06:45:55.344Z,6.80
2017-09-18T06:48:22.930Z,5.07
2017-09-18T06:50:50.506Z,6.50
2017-09-18T06:53:18.103Z,8.07
2017-09-18T06:55:46.436Z,5.20
2017-09-18T06:58:14.015Z,5.80
2017-09-18T07:00:41.573Z,6.80
2017-09-18T07:03:09.144Z,7.60
2017-09-18T07:05:36.727Z,5.40
2017-09-18T07:08:05.053Z,5.53
2017-09-18T07:10:32.773Z,5.90
2017-09-18T07:13:01.133Z,9.60
2017-09-18T07:15:28.837Z,6.80
2017-09-18T07:17:56.445Z,4.90
2017-09-18T07:20:24.261Z,13.80
2017-09-18T07:22:51.846Z,7.83
2017-09-18T07:25:19.419Z,6.03
2017-09-18T07:27:47.008Z,11.40
2017-09-18T07:30:14.562Z,5.57
2017-09-18T07:32:42.404Z,6.53
2017-09-18T07:35:09.985Z,6.23
2017-09-18T07:37:37.595Z,8.83
2017-09-18T07:40:05.179Z,9.90
2017-09-18T07:42:32.762Z,5.63
2017-09-18T07:45:00.353Z,8.60
2017-09-18T07:47:28.687Z,7.13
2017-09-18T07:49:56.473Z,7.43
2017-09-18T07:52:24.050Z,7.50
2017-09-18T07:54:51.689Z,4.23
2017-09-18T07:57:19.271Z,6.00
2017-09-18T07:59:46.846Z,5.27
2017-09-18T08:02:15.167Z,7.03
2017-09-18T08:04:42.808Z,4.73
2017-09-18T08:07:11.132Z,5.97
2017-09-18T08:09:38.958Z,5.30
2017-09-18T08:12:06.652Z,8.20
2017-09-18T08:14:34.394Z,4.63
2017-09-18T08:17:02.869Z,6.20
2017-09-18T08:19:31.345Z,7.50
2017-09-18T08:21:59.674Z,5.40
2017-09-18T08:24:27.253Z,5.03
2017-09-18T08:26:54.811Z,6.50
2017-09-18T08:29:22.708Z,6.00
2017-09-18T08:31:51.210Z,5.37
2017-09-18T08:34:18.801Z,5.80
2017-09-18T08:36:47.778Z,5.80
2017-09-18T08:39:15.526Z,7.23
2017-09-18T08:41:43.259Z,7.90
2017-09-18T08:44:10.882Z,6.00
2017-09-18T08:46:39.261Z,5.77
2017-09-18T08:49:07.788Z,6.83
2017-09-18T08:51:35.501Z,9.30
2017-09-18T08:54:03.154Z,8.37
2017-09-18T08:56:31.522Z,5.70
2017-09-18T08:58:59.207Z,7.53
2017-09-18T09:01:27.539Z,7.80
2017-09-18T09:03:55.237Z,10.13
2017-09-18T09:06:22.940Z,7.80
2017-09-18T09:08:50.564Z,7.40
2017-09-18T09:11:18.206Z,6.17
2017-09-18T09:13:45.798Z,6.87
2017-09-18T09:16:14.163Z,8.67
2017-09-18T09:18:41.760Z,6.27
2017-09-18T09:21:10.142Z,7.20
2017-09-18T09:23:38.815Z,13.10
2017-09-18T09:26:07.213Z,6.80
2017-09-18T09:28:34.838Z,6.90
2017-09-18T09:31:02.527Z,7.63
2017-09-18T09:33:30.856Z,9.03
2017-09-18T09:35:58.547Z,9.03
2017-09-18T09:38:26.131Z,7.17
2017-09-18T10:18:42.443Z,4.17
2017-09-18T10:21:10.040Z,8.80
2017-09-18T10:23:37.647Z,5.17
2017-09-18T10:26:05.250Z,6.70
2017-09-18T10:28:32.848Z,4.83
2017-09-18T10:31:01.194Z,4.83
2017-09-18T10:33:28.756Z,5.83
2017-09-18T10:35:56.430Z,6.00
2017-09-18T10:38:25.074Z,8.90
2017-09-18T10:40:52.685Z,4.43
2017-09-18T10:43:20.269Z,6.33
2017-09-18T10:45:47.829Z,5.73
2017-09-18T10:48:16.190Z,6.87
2017-09-18T10:50:43.837Z,4.60
2017-09-18T10:53:11.406Z,5.33
2017-09-18T10:55:39.141Z,4.47
2017-09-18T10:58:06.751Z,5.37
2017-09-18T11:00:35.097Z,3.57
2017-09-18T11:03:03.676Z,4.10
2017-09-18T11:05:31.413Z,6.70
2017-09-18T11:07:59.294Z,3.80
2017-09-18T11:10:27.044Z,8.10
2017-09-18T11:12:55.459Z,4.00
2017-09-18T11:15:23.038Z,4.03
2017-09-18T11:17:50.681Z,3.80
2017-09-18T11:20:18.507Z,5.53
2017-09-18T11:22:46.863Z,2.80
2017-09-18T11:25:14.420Z,3.83
2017-09-18T11:27:42.059Z,4.27
2017-09-18T11:30:09.646Z,3.40
2017-09-18T11:32:37.205Z,5.07
2017-09-18T11:35:04.790Z,3.40
2017-09-18T11:37:33.382Z,3.30
2017-09-18T11:40:01.728Z,4.10
2017-09-18T11:42:29.332Z,6.23
2017-09-18T11:44:57.743Z,5.07
2017-09-18T11:47:25.316Z,3.50
2017-09-18T11:49:52.859Z,4.70
2017-09-18T11:52:20.540Z,3.70
2017-09-18T11:54:48.125Z,3.27
2017-09-18T11:57:16.460Z,2.93
2017-09-18T11:59:44.056Z,3.53
2017-09-18T12:02:11.645Z,5.97
2017-09-18T12:04:40.651Z,5.10
2017-09-18T12:07:08.987Z,5.50
2017-09-18T12:09:36.584Z,4.20
2017-09-18T12:12:05.035Z,3.90
2017-09-18T12:14:32.586Z,3.73
2017-09-18T12:17:00.171Z,3.80
2017-09-18T12:19:28.503Z,3.97
2017-09-18T12:21:56.086Z,2.70
2017-09-18T12:24:23.667Z,4.30
2017-09-18T12:26:51.235Z,3.20
2017-09-18T12:29:18.817Z,5.10
2017-09-18T12:31:47.187Z,5.33
2017-09-18T12:34:14.932Z,2.60
2017-09-18T12:36:42.544Z,3.13
2017-09-18T12:39:10.125Z,2.70
2017-09-18T12:41:37.742Z,3.73
2017-09-18T12:44:05.334Z,19.03
2017-09-18T12:46:32.958Z,5.43
2017-09-18T12:49:00.564Z,2.10
2017-09-18T12:51:28.154Z,3.90
2017-09-18T12:53:55.752Z,3.50
2017-09-18T12:56:24.097Z,5.20
2017-09-18T12:58:51.683Z,2.60
2017-09-18T13:01:20.017Z,7.40
2017-09-18T13:03:47.630Z,9.03
2017-09-18T13:06:15.345Z,4.50
2017-09-18T13:08:42.901Z,4.57
2017-09-18T13:11:10.603Z,3.93
2017-09-18T13:13:38.306Z,3.43
2017-09-18T13:16:06.671Z,3.03
2017-09-18T13:18:34.235Z,4.03
2017-09-18T13:21:02.595Z,4.27
2017-09-18T13:23:30.204Z,5.70
2017-09-18T13:25:57.813Z,20.40
2017-09-18T13:28:25.407Z,3.47
2017-09-18T13:30:53.784Z,4.03
2017-09-18T13:33:21.368Z,3.03
2017-09-18T13:35:49.728Z,2.07
2017-09-18T13:38:17.295Z,5.30
2017-09-18T13:40:44.863Z,2.77
2017-09-18T13:43:13.242Z,2.60
2017-09-18T13:45:41.593Z,7.00
2017-09-18T13:48:09.199Z,3.77
2017-09-18T13:50:37.649Z,4.73
2017-09-18T13:53:05.995Z,3.50
2017-09-18T13:55:33.578Z,4.10
2017-09-18T13:58:01.155Z,5.43
2017-09-18T14:00:28.760Z,3.93
2017-09-18T14:02:56.366Z,3.43
2017-09-18T14:05:23.965Z,4.87
2017-09-18T14:07:52.299Z,4.77
2017-09-18T14:10:19.898Z,2.97
2017-09-18T14:12:48.251Z,5.30
2017-09-18T14:15:15.927Z,2.87
2017-09-18T14:17:44.536Z,4.20
2017-09-18T14:20:12.233Z,2.70
2017-09-18T14:22:40.624Z,2.40
2017-09-18T14:25:08.346Z,2.87
2017-09-18T14:27:36.724Z,3.53
2017-09-18T14:30:05.130Z,3.10
2017-09-18T14:32:32.726Z,2.20
2017-09-18T14:35:00.339Z,6.50
2017-09-18T14:37:28.850Z,4.53
2017-09-18T14:39:56.469Z,3.00
2017-09-18T14:42:24.070Z,3.10
2017-09-18T14:44:51.692Z,2.17
2017-09-18T14:47:20.039Z,3.57
2017-09-18T14:49:47.623Z,2.20
2017-09-18T14:52:15.995Z,8.63
2017-09-18T14:54:43.604Z,5.23
2017-09-18T14:57:11.172Z,5.70
2017-09-18T14:59:38.772Z,3.87
2017-09-18T15:02:06.353Z,4.07
2017-09-18T15:04:33.951Z,4.37
2017-09-18T15:07:01.682Z,6.73
2017-09-18T15:09:29.263Z,3.97
2017-09-18T15:11:57.646Z,3.97
2017-09-18T15:14:26.250Z,3.83
2017-09-18T15:16:53.831Z,3.67
2017-09-18T15:19:21.414Z,2.90
2017-09-18T15:21:49.009Z,3.00
2017-09-18T15:24:16.571Z,3.13
2017-09-18T15:26:44.918Z,5.27
2017-09-18T15:29:12.486Z,7.33
2017-09-18T15:31:40.220Z,5.07
2017-09-18T15:34:07.804Z,3.07
2017-09-18T15:36:35.391Z,2.47
2017-09-18T15:39:03.735Z,10.23
2017-09-18T15:41:31.340Z,4.23
2017-09-18T15:43:58.931Z,4.43
2017-09-18T15:46:27.270Z,2.80
2017-09-18T15:48:54.850Z,2.30
2017-09-18T15:51:23.242Z,3.17
2017-09-18T15:53:51.656Z,7.13
2017-09-18T15:56:19.236Z,2.60
2017-09-18T15:58:46.823Z,6.27
2017-09-18T16:01:14.397Z,2.93
2017-09-18T16:03:42.759Z,4.00
2017-09-18T16:06:10.367Z,7.83
2017-09-18T16:08:37.960Z,5.17
2017-09-18T16:11:05.547Z,6.20
2017-09-18T16:13:33.107Z,3.87
2017-09-18T16:16:00.727Z,2.90
2017-09-18T16:18:28.334Z,2.00
2017-09-18T16:20:55.920Z,5.83
2017-09-18T16:23:24.317Z,5.57
2017-09-18T16:25:51.894Z,4.33
2017-09-18T16:28:19.485Z,2.43
2017-09-18T16:30:47.071Z,3.40
2017-09-18T16:33:15.532Z,3.10
2017-09-18T16:50:12.588Z,6.80
2017-09-18T16:55:34.015Z,4.67
2017-09-18T16:58:01.819Z,3.60
2017-09-18T17:00:30.175Z,3.10
2017-09-18T17:02:59.020Z,3.40
2017-09-18T17:05:26.596Z,5.33
2017-09-18T17:07:54.175Z,5.13
2017-09-18T17:10:21.792Z,3.00
2017-09-18T17:12:49.373Z,5.00
2017-09-18T17:15:16.977Z,3.40
2017-09-18T17:17:44.693Z,4.10
2017-09-18T17:20:12.414Z,8.13
2017-09-18T17:22:39.987Z,3.60
2017-09-18T17:25:08.510Z,4.03
2017-09-18T17:27:36.099Z,3.87
2017-09-18T17:30:04.015Z,3.03
2017-09-18T17:32:32.399Z,4.47
2017-09-18T17:35:00.249Z,3.73
2017-09-18T17:37:28.695Z,3.80
2017-09-18T17:39:56.484Z,4.43
2017-09-18T17:42:24.124Z,6.10
2017-09-18T17:44:52.021Z,5.77
2017-09-18T17:47:19.664Z,8.67
2017-09-18T17:49:47.261Z,6.70
2017-09-18T17:52:15.642Z,6.63
2017-09-18T17:54:44.003Z,9.73
2017-09-18T17:57:11.629Z,7.83
2017-09-18T17:59:39.204Z,6.40
2017-09-18T18:02:06.784Z,7.03
2017-09-18T18:04:34.611Z,10.60
2017-09-18T18:07:02.199Z,3.67
2017-09-18T18:09:29.783Z,7.47
2017-09-18T18:11:58.494Z,6.30
2017-09-18T18:14:26.862Z,7.30
2017-09-18T18:16:55.249Z,7.13
2017-09-18T18:19:23.576Z,6.93
2017-09-18T18:21:51.172Z,6.33
2017-09-18T18:24:18.754Z,6.63
2017-09-18T18:29:39.451Z,5.93
2017-09-18T18:32:07.046Z,6.50
2017-09-18T18:34:35.707Z,4.70
2017-09-18T18:37:04.142Z,7.73
2017-09-18T18:39:32.551Z,3.13
2017-09-18T18:42:00.287Z,4.60
2017-09-18T18:44:28.389Z,5.43
2017-09-18T18:46:56.056Z,4.33
2017-09-18T18:49:23.777Z,5.20
2017-09-18T18:51:52.156Z,7.00
2017-09-18T18:54:20.516Z,3.33
2017-09-18T19:11:13.633Z,7.77
2017-09-18T19:13:41.203Z,8.50
2017-09-18T19:16:08.868Z,6.00
2017-09-18T19:18:36.466Z,6.07
2017-09-18T19:21:04.838Z,6.87
2017-09-18T19:23:32.415Z,6.23
2017-09-18T19:26:00.011Z,6.23
2017-09-18T19:28:27.818Z,5.87
2017-09-18T19:30:55.410Z,5.37
2017-09-18T19:33:23.358Z,5.50
2017-09-18T19:35:51.781Z,7.60
2017-09-18T19:38:20.111Z,6.20
2017-09-18T19:40:47.697Z,6.20
2017-09-18T19:43:15.536Z,10.00
2017-09-18T19:45:43.096Z,12.43
2017-09-18T19:48:10.711Z,7.40
2017-09-18T19:50:39.084Z,9.83
2017-09-18T19:53:07.443Z,11.03
2017-09-18T19:55:39.006Z,10.17
2017-09-18T19:58:06.601Z,11.47
2017-09-18T20:00:35.150Z,11.33
2017-09-18T20:03:02.785Z,13.43
2017-09-18T20:05:31.363Z,10.17
2017-09-18T20:07:58.934Z,8.23
2017-09-18T20:10:26.763Z,9.07
2017-09-18T20:12:54.328Z,8.97
2017-09-18T20:15:21.927Z,7.77
2017-09-18T20:17:49.528Z,7.20
2017-09-18T20:20:17.154Z,6.27
2017-09-18T20:22:44.793Z,7.30
2017-09-18T20:25:12.606Z,7.67
2017-09-18T20:27:40.550Z,7.00
2017-09-18T20:30:08.348Z,8.07
2017-09-18T20:32:36.938Z,10.03
2017-09-18T20:35:04.699Z,5.10
2017-09-18T20:37:33.184Z,6.50
2017-09-18T20:40:00.936Z,5.80
2017-09-18T20:42:29.363Z,6.50
2017-09-18T20:44:57.021Z,5.97
2017-09-18T20:47:24.662Z,6.83
2017-09-18T20:49:53.048Z,10.90
2017-09-18T20:52:20.696Z,6.00
2017-09-18T20:54:49.048Z,6.40
2017-09-18T20:57:17.452Z,9.33
2017-09-18T20:59:45.890Z,8.03
2017-09-18T21:02:13.497Z,9.00
2017-09-18T21:04:42.011Z,10.63
2017-09-18T21:07:09.639Z,8.90
2017-09-18T21:09:37.242Z,10.83
2017-09-18T21:12:13.907Z,5.43
2017-09-18T21:14:41.499Z,7.73
2017-09-18T21:17:09.132Z,9.70
2017-09-18T21:19:36.756Z,5.63
2017-09-18T21:22:04.346Z,8.70
2017-09-18T21:24:31.985Z,10.10
2017-09-18T21:26:59.553Z,8.50
2017-09-18T21:29:27.914Z,8.83
2017-09-18T21:31:55.576Z,7.07
2017-09-18T21:34:23.192Z,8.03
2017-09-18T21:36:50.782Z,8.47
2017-09-18T21:39:18.416Z,7.40
2017-09-18T21:41:46.023Z,7.10
2017-09-18T21:44:13.677Z,6.83
2017-09-18T21:46:41.345Z,10.80
2017-09-18T21:49:08.901Z,7.97
2017-09-18T21:51:36.486Z,9.93
2017-09-18T21:54:04.837Z,10.13
2017-09-18T21:56:32.535Z,12.60
2017-09-18T21:59:00.149Z,8.30
2017-09-18T22:01:27.718Z,9.00
2017-09-18T22:03:55.425Z,8.43
2017-09-18T22:06:23.772Z,11.13
2017-09-18T22:08:51.478Z,8.60
2017-09-18T22:11:19.172Z,11.10
2017-09-18T22:13:46.748Z,9.03
2017-09-18T22:16:14.319Z,8.70
2017-09-18T22:18:41.908Z,11.17
2017-09-18T22:21:10.258Z,9.73
2017-09-18T22:23:37.850Z,9.10
2017-09-18T22:26:05.602Z,8.80
2017-09-18T22:28:33.176Z,8.47
2017-09-18T22:31:00.752Z,8.90
2017-09-18T22:33:29.389Z,11.03
2017-09-18T22:35:57.940Z,11.30
2017-09-18T22:38:25.579Z,10.73
2017-09-18T22:40:53.947Z,13.63
2017-09-18T22:43:21.530Z,13.57
2017-09-18T22:45:49.121Z,17.40
2017-09-18T22:48:16.688Z,16.23
2017-09-18T22:50:44.274Z,17.23
2017-09-18T22:53:11.883Z,20.30
2017-09-18T22:55:39.454Z,18.63
2017-09-18T22:58:07.064Z,19.20
2017-09-18T23:00:34.664Z,19.17
2017-09-18T23:03:02.266Z,24.30
2017-09-18T23:05:29.826Z,18.63
2017-09-18T23:07:58.067Z,15.10
2017-09-18T23:10:25.648Z,19.07
2017-09-18T23:12:53.226Z,14.07
2017-09-18T23:15:20.823Z,14.87
2017-09-18T23:17:49.174Z,19.53
2017-09-18T23:20:16.782Z,16.20
2017-09-18T23:22:45.131Z,19.97
2017-09-18T23:25:12.713Z,17.27
2017-09-18T23:27:41.137Z,17.77
2017-09-18T23:30:08.724Z,16.97
2017-09-18T23:32:36.287Z,18.60
2017-09-18T23:35:03.893Z,16.87
2017-09-18T23:37:32.227Z,21.87
2017-09-18T23:39:59.818Z,19.73
2017-09-18T23:42:28.163Z,18.00
2017-09-18T23:44:55.831Z,19.70
2017-09-18T23:47:23.436Z,19.80
2017-09-18T23:49:51.786Z,24.00
2017-09-18T23:52:19.339Z,20.23
2017-09-18T23:54:46.894Z,20.00
2017-09-18T23:57:14.594Z,18.93
2017-09-18T23:59:42.945Z,20.43
